createdAt,value
2023-05-10T00:01:06.720Z,8.75
2023-05-10T00:04:09.671Z,8.74
2023-05-10T00:07:12.435Z,8.75
2023-05-10T00:10:15.515Z,8.70
2023-05-10T00:13:18.554Z,8.66
2023-05-10T00:16:21.448Z,8.63
2023-05-10T00:19:24.189Z,8.60
2023-05-10T00:22:27.233Z,8.56
2023-05-10T00:25:30.134Z,8.56
2023-05-10T00:28:32.918Z,8.50
2023-05-10T00:31:35.897Z,8.43
2023-05-10T00:34:39.213Z,8.42
2023-05-10T00:37:42.169Z,8.36
2023-05-10T00:40:45.213Z,8.32
2023-05-10T00:43:55.888Z,8.34
2023-05-10T00:47:00.554Z,8.33
2023-05-10T00:50:03.860Z,8.32
2023-05-10T00:53:08.505Z,8.27
2023-05-10T00:56:11.634Z,8.20
2023-05-10T00:59:14.500Z,8.14
2023-05-10T01:02:17.399Z,8.04
2023-05-10T01:05:20.550Z,7.97
2023-05-10T01:08:23.624Z,7.94
2023-05-10T01:11:26.881Z,7.85
2023-05-10T01:14:30.094Z,7.75
2023-05-10T01:17:34.260Z,7.75
2023-05-10T01:20:44.544Z,7.74
2023-05-10T01:24:02.532Z,7.65
2023-05-10T01:27:27.280Z,7.65
2023-05-10T01:30:48.967Z,7.56
2023-05-10T01:34:08.158Z,7.47
2023-05-10T01:37:19.150Z,7.52
2023-05-10T01:40:28.506Z,7.49
2023-05-10T01:43:38.350Z,7.44
2023-05-10T01:46:42.008Z,7.43
2023-05-10T01:49:53.457Z,7.39
2023-05-10T01:52:58.533Z,7.32
2023-05-10T01:56:03.313Z,7.24
2023-05-10T01:59:12.605Z,7.13
2023-05-10T02:02:16.913Z,7.12
2023-05-10T02:05:22.957Z,7.06
2023-05-10T02:08:26.889Z,7.03
2023-05-10T02:11:30.975Z,6.95
2023-05-10T02:14:37.371Z,6.96
2023-05-10T02:17:42.815Z,6.95
2023-05-10T02:20:49.430Z,6.96
2023-05-10T02:23:53.789Z,6.96
2023-05-10T02:26:58.121Z,6.97
2023-05-10T02:30:01.781Z,6.95
2023-05-10T02:33:07.512Z,6.94
2023-05-10T02:36:11.820Z,6.93
2023-05-10T02:39:16.805Z,6.90
2023-05-10T02:42:24.117Z,6.92
2023-05-10T02:45:30.393Z,6.89
2023-05-10T02:48:33.217Z,6.88
2023-05-10T02:51:38.356Z,6.85
2023-05-10T02:54:46.421Z,6.81
2023-05-10T02:58:03.242Z,6.74
2023-05-10T03:01:06.132Z,6.63
2023-05-10T03:04:09.389Z,6.58
2023-05-10T03:07:12.807Z,6.74
2023-05-10T03:10:18.531Z,6.75
2023-05-10T03:13:45.365Z,6.70
2023-05-10T03:16:57.903Z,6.69
2023-05-10T03:20:08.606Z,6.75
2023-05-10T03:23:38.372Z,6.69
2023-05-10T03:26:44.633Z,6.69
2023-05-10T03:29:53.823Z,6.68
2023-05-10T03:32:58.150Z,6.72
2023-05-10T03:36:01.491Z,6.72
2023-05-10T03:39:04.656Z,6.78
2023-05-10T03:42:07.566Z,6.87
2023-05-10T03:45:10.807Z,6.87
2023-05-10T03:48:14.955Z,6.91
2023-05-10T03:51:18.824Z,7.01
2023-05-10T03:54:21.735Z,7.06
2023-05-10T03:57:24.600Z,7.14
2023-05-10T04:00:27.518Z,7.22
2023-05-10T04:03:32.048Z,7.30
2023-05-10T04:06:36.322Z,7.41
2023-05-10T04:09:39.205Z,7.50
2023-05-10T04:12:42.241Z,7.56
2023-05-10T04:15:45.078Z,7.68
2023-05-10T04:18:47.903Z,7.75
2023-05-10T04:21:50.754Z,7.90
2023-05-10T04:24:53.631Z,8.20
2023-05-10T04:27:56.443Z,8.55
2023-05-10T04:31:03.991Z,8.82
2023-05-10T04:34:06.884Z,9.09
2023-05-10T04:37:09.778Z,9.19
2023-05-10T04:40:13.047Z,9.28
2023-05-10T04:43:15.781Z,9.37
2023-05-10T04:46:18.627Z,9.50
2023-05-10T04:49:21.763Z,9.68
2023-05-10T04:52:24.505Z,9.94
2023-05-10T04:55:28.035Z,10.04
2023-05-10T04:58:30.975Z,10.48
2023-05-10T05:01:34.190Z,10.65
2023-05-10T05:04:37.023Z,10.67
2023-05-10T05:07:39.909Z,10.82
2023-05-10T05:10:42.838Z,10.79
2023-05-10T05:13:48.579Z,11.44
2023-05-10T05:16:51.551Z,11.53
2023-05-10T05:19:54.685Z,11.77
2023-05-10T05:22:57.571Z,12.02
2023-05-10T05:26:03.491Z,11.53
2023-05-10T05:29:08.744Z,11.54
2023-05-10T05:32:12.573Z,11.47
2023-05-10T05:35:15.792Z,11.77
2023-05-10T05:38:18.897Z,11.94
2023-05-10T05:41:22.681Z,12.01
2023-05-10T05:44:26.161Z,12.25
2023-05-10T05:47:29.124Z,12.37
2023-05-10T05:50:32.520Z,12.62
2023-05-10T05:59:07.465Z,13.28
2023-05-10T06:02:11.030Z,13.09
2023-05-10T06:05:15.346Z,13.41
2023-05-10T06:08:19.005Z,13.74
2023-05-10T06:11:25.108Z,13.76
2023-05-10T06:14:28.622Z,13.69
2023-05-10T06:17:32.382Z,13.42
2023-05-10T06:20:39.476Z,14.03
2023-05-10T06:23:46.320Z,14.03
2023-05-10T06:26:51.092Z,14.41
2023-05-10T06:30:02.082Z,14.63
2023-05-10T06:33:09.661Z,14.40
2023-05-10T06:36:15.455Z,14.57
2023-05-10T06:39:18.521Z,15.18
2023-05-10T06:42:21.323Z,15.01
2023-05-10T06:45:25.073Z,15.40
2023-05-10T06:48:28.139Z,14.90
2023-05-10T06:51:30.966Z,15.84
2023-05-10T06:54:54.014Z,16.22
2023-05-10T06:57:57.203Z,15.81
2023-05-10T07:01:04.478Z,16.37
2023-05-10T07:04:08.990Z,16.14
2023-05-10T07:07:17.337Z,16.45
2023-05-10T07:10:20.629Z,17.88
2023-05-10T07:13:23.789Z,18.14
2023-05-10T07:16:27.024Z,18.37
2023-05-10T07:19:33.850Z,18.36
2023-05-10T07:22:37.264Z,18.73
2023-05-10T07:25:40.230Z,19.78
2023-05-10T07:32:44.047Z,19.57
2023-05-10T07:35:49.928Z,20.03
2023-05-10T07:38:53.104Z,19.10
2023-05-10T07:41:56.701Z,18.77
2023-05-10T07:44:59.505Z,19.12
2023-05-10T07:48:03.290Z,19.77
2023-05-10T07:51:08.471Z,20.78
2023-05-10T07:54:11.629Z,20.18
2023-05-10T07:57:16.531Z,18.97
2023-05-10T08:00:21.281Z,19.65
2023-05-10T08:03:24.299Z,20.05
2023-05-10T08:06:31.367Z,20.37
2023-05-10T08:09:34.693Z,19.39
2023-05-10T08:12:37.628Z,19.11
2023-05-10T08:15:40.736Z,17.76
2023-05-10T08:18:45.341Z,19.56
2023-05-10T08:21:48.790Z,20.27
2023-05-10T08:24:51.645Z,19.67
2023-05-10T08:27:54.415Z,18.00
2023-05-10T08:30:57.825Z,18.05
2023-05-10T08:34:02.027Z,18.18
2023-05-10T08:47:08.878Z,18.97
2023-05-10T08:55:22.610Z,21.58
2023-05-10T08:59:00.314Z,22.85
2023-05-10T09:03:30.851Z,20.80
2023-05-10T09:12:08.266Z,19.90
2023-05-10T09:15:13.359Z,20.77
2023-05-10T09:18:16.755Z,19.95
2023-05-10T09:21:21.781Z,20.06
2023-05-10T09:24:28.252Z,19.33
2023-05-10T09:27:31.194Z,19.11
2023-05-10T09:30:34.473Z,21.75
2023-05-10T09:33:46.303Z,21.21
2023-05-10T09:37:02.087Z,18.84
2023-05-10T09:40:32.301Z,19.68
2023-05-10T09:43:41.619Z,20.59
2023-05-10T09:46:53.401Z,20.48
2023-05-10T09:50:04.274Z,19.61
2023-05-10T09:53:09.114Z,19.33
2023-05-10T09:56:45.912Z,18.67
2023-05-10T09:59:51.957Z,20.07
2023-05-10T10:02:59.990Z,21.18
2023-05-10T10:06:03.414Z,22.62
2023-05-10T10:09:10.493Z,20.87
2023-05-10T10:12:16.398Z,22.28
2023-05-10T10:15:21.713Z,22.55
2023-05-10T10:18:28.339Z,21.43
2023-05-10T10:21:40.960Z,22.48
2023-05-10T10:24:44.363Z,24.67
2023-05-10T10:27:54.957Z,23.66
2023-05-10T10:31:05.455Z,22.65
2023-05-10T10:38:08.763Z,20.29
2023-05-10T10:41:28.024Z,19.53
2023-05-10T10:44:36.780Z,22.29
2023-05-10T10:47:39.738Z,23.01
2023-05-10T10:50:47.223Z,22.11
2023-05-10T10:53:50.565Z,21.13
2023-05-10T10:57:18.432Z,23.29
2023-05-10T11:00:22.303Z,25.71
2023-05-10T11:03:25.988Z,24.52
2023-05-10T11:06:38.672Z,22.70
2023-05-10T11:09:42.340Z,24.58
2023-05-10T11:13:11.331Z,21.32
2023-05-10T11:16:16.412Z,22.96
2023-05-10T11:19:20.999Z,26.39
2023-05-10T11:22:26.876Z,25.35
2023-05-10T11:25:30.027Z,23.16
2023-05-10T11:28:33.442Z,23.82
2023-05-10T11:35:14.860Z,23.40
2023-05-10T11:38:17.746Z,23.10
2023-05-10T11:41:24.744Z,25.39
2023-05-10T11:44:35.901Z,22.33
2023-05-10T11:47:42.591Z,26.06
2023-05-10T11:50:49.793Z,27.13
2023-05-10T11:53:56.499Z,26.91
2023-05-10T11:56:59.370Z,27.64
2023-05-10T12:00:04.819Z,29.60
2023-05-10T12:03:14.719Z,28.73
2023-05-10T12:06:29.804Z,28.17
2023-05-10T12:13:51.085Z,27.42
2023-05-10T12:16:54.112Z,28.54
2023-05-10T12:20:13.959Z,28.34
2023-05-10T12:23:48.304Z,27.02
2023-05-10T12:26:52.827Z,25.79
2023-05-10T12:33:16.229Z,27.70
2023-05-10T12:36:26.768Z,24.49
2023-05-10T12:39:55.550Z,22.44
2023-05-10T12:42:58.661Z,21.76
2023-05-10T12:46:12.592Z,24.11
2023-05-10T12:49:21.088Z,24.97
2023-05-10T12:52:24.371Z,27.61
2023-05-10T12:55:27.226Z,28.43
2023-05-10T12:58:35.611Z,27.51
2023-05-10T13:01:39.887Z,26.72
2023-05-10T13:04:45.229Z,28.36
2023-05-10T13:08:14.663Z,28.11
2023-05-10T13:11:21.078Z,27.12
2023-05-10T13:14:23.944Z,28.02
2023-05-10T13:17:26.954Z,27.11
2023-05-10T13:20:34.045Z,26.66
2023-05-10T13:23:39.677Z,24.11
2023-05-10T13:26:42.714Z,24.68
2023-05-10T13:30:25.538Z,22.95
2023-05-10T13:33:29.069Z,21.70
2023-05-10T13:36:32.751Z,21.78
2023-05-10T13:39:35.888Z,21.84
2023-05-10T13:42:38.957Z,22.36
2023-05-10T13:45:42.005Z,21.93
2023-05-10T13:48:44.809Z,23.08
2023-05-10T13:51:47.660Z,22.13
2023-05-10T13:54:50.527Z,22.28
2023-05-10T13:57:53.277Z,21.24
2023-05-10T14:00:58.192Z,20.99
2023-05-10T14:04:01.371Z,20.47
2023-05-10T14:07:04.378Z,20.84
2023-05-10T14:13:30.797Z,21.10
2023-05-10T14:16:34.021Z,21.25
2023-05-10T14:19:36.864Z,21.02
2023-05-10T14:22:39.681Z,21.19
2023-05-10T14:25:42.684Z,20.80
2023-05-10T14:28:45.624Z,20.85
2023-05-10T14:31:51.553Z,20.75
2023-05-10T14:34:54.411Z,20.26
2023-05-10T14:37:57.955Z,19.80
2023-05-10T14:41:00.886Z,19.97
2023-05-10T14:44:04.552Z,19.79
2023-05-10T14:47:07.809Z,20.19
2023-05-10T14:50:14.706Z,20.66
2023-05-10T14:53:21.736Z,20.40
2023-05-10T14:56:24.460Z,20.38
2023-05-10T14:59:27.265Z,20.21
2023-05-10T15:02:31.907Z,20.07
2023-05-10T15:05:35.466Z,20.35
2023-05-10T15:08:38.977Z,20.36
2023-05-10T15:11:41.763Z,20.29
2023-05-10T15:14:44.634Z,20.22
2023-05-10T15:17:48.639Z,20.44
2023-05-10T15:20:51.464Z,20.13
2023-05-10T15:23:54.353Z,19.94
2023-05-10T15:26:57.180Z,19.85
2023-05-10T15:30:00.793Z,19.84
2023-05-10T15:33:03.634Z,19.77
2023-05-10T15:36:07.781Z,19.79
2023-05-10T15:39:11.043Z,19.62
2023-05-10T15:42:13.856Z,19.71
2023-05-10T15:45:17.007Z,19.66
2023-05-10T15:48:19.957Z,19.63
2023-05-10T15:51:23.097Z,19.72
2023-05-10T15:54:25.910Z,19.32
2023-05-10T15:57:28.698Z,19.42
2023-05-10T16:00:31.461Z,19.64
2023-05-10T16:03:36.763Z,19.74
2023-05-10T16:06:40.375Z,19.58
2023-05-10T16:09:43.328Z,19.42
2023-05-10T16:12:46.131Z,19.24
2023-05-10T16:15:49.120Z,19.19
2023-05-10T16:19:03.396Z,19.12
2023-05-10T16:22:17.840Z,18.98
2023-05-10T16:25:20.575Z,18.94
2023-05-10T16:28:30.909Z,18.87
2023-05-10T16:31:34.641Z,18.80
2023-05-10T16:34:37.739Z,18.77
2023-05-10T16:37:40.474Z,18.56
2023-05-10T16:40:43.227Z,18.66
2023-05-10T16:43:46.272Z,18.57
2023-05-10T16:46:49.122Z,18.39
2023-05-10T16:49:52.106Z,18.47
2023-05-10T16:52:54.949Z,18.40
2023-05-10T16:55:57.729Z,18.38
2023-05-10T16:59:00.704Z,18.25
2023-05-10T17:02:03.638Z,18.15
2023-05-10T17:05:06.828Z,18.09
2023-05-10T17:08:10.385Z,17.99
2023-05-10T17:11:13.117Z,18.01
2023-05-10T17:14:16.060Z,17.83
2023-05-10T17:17:18.871Z,17.76
2023-05-10T17:20:21.979Z,17.69
2023-05-10T17:23:24.736Z,17.62
2023-05-10T17:26:27.996Z,17.53
2023-05-10T17:29:32.188Z,17.41
2023-05-10T17:32:35.023Z,17.36
2023-05-10T17:35:46.793Z,17.34
2023-05-10T17:38:50.569Z,17.25
2023-05-10T17:41:53.352Z,17.17
2023-05-10T17:44:56.361Z,17.08
2023-05-10T17:47:59.150Z,17.05
2023-05-10T17:51:01.930Z,16.91
2023-05-10T17:54:04.790Z,16.84
2023-05-10T17:57:07.838Z,16.77
2023-05-10T18:00:11.136Z,16.66
2023-05-10T18:03:14.561Z,16.60
2023-05-10T18:06:17.423Z,16.54
2023-05-10T18:09:21.378Z,16.45
2023-05-10T18:12:24.392Z,16.40
2023-05-10T18:15:27.891Z,16.36
2023-05-10T18:18:30.702Z,16.28
2023-05-10T18:21:33.408Z,16.27
2023-05-10T18:24:39.654Z,16.26
2023-05-10T18:27:43.964Z,16.19
2023-05-10T18:30:46.847Z,16.08
2023-05-10T18:33:49.639Z,16.00
2023-05-10T18:36:52.832Z,15.97
2023-05-10T18:39:57.822Z,15.96
2023-05-10T18:43:00.654Z,15.95
2023-05-10T18:46:03.398Z,15.88
2023-05-10T18:49:38.475Z,15.84
2023-05-10T18:52:41.512Z,15.83
2023-05-10T18:55:44.907Z,15.82
2023-05-10T18:58:49.604Z,15.76
2023-05-10T19:01:54.237Z,15.73
2023-05-10T19:04:59.752Z,15.63
2023-05-10T19:08:02.585Z,15.63
2023-05-10T19:11:05.447Z,15.52
2023-05-10T19:14:09.085Z,15.45
2023-05-10T19:17:14.962Z,15.44
2023-05-10T19:20:18.232Z,15.46
2023-05-10T19:23:21.129Z,15.39
2023-05-10T19:26:27.040Z,15.30
2023-05-10T19:29:30.097Z,15.18
2023-05-10T19:32:33.004Z,15.06
2023-05-10T19:35:35.745Z,15.01
2023-05-10T19:38:38.911Z,14.99
2023-05-10T19:41:48.354Z,15.01
2023-05-10T19:45:05.270Z,15.02
2023-05-10T19:48:11.128Z,15.03
2023-05-10T19:51:17.723Z,15.03
2023-05-10T19:54:27.046Z,15.11
2023-05-10T19:57:30.234Z,15.08
2023-05-10T20:00:33.095Z,15.10
2023-05-10T20:03:36.618Z,15.11
2023-05-10T20:06:39.616Z,15.06
2023-05-10T20:09:44.445Z,15.04
2023-05-10T20:12:51.379Z,14.99
2023-05-10T20:15:58.643Z,14.92
2023-05-10T20:19:01.573Z,14.87
2023-05-10T20:22:05.539Z,14.84
2023-05-10T20:25:08.968Z,14.82
2023-05-10T20:28:13.252Z,14.74
2023-05-10T20:31:16.016Z,14.74
2023-05-10T20:34:18.819Z,14.67
2023-05-10T20:37:21.651Z,14.42
2023-05-10T20:40:24.663Z,14.21
2023-05-10T20:43:29.275Z,14.09
2023-05-10T20:46:33.082Z,14.00
2023-05-10T20:49:37.997Z,13.97
2023-05-10T20:52:40.931Z,13.89
2023-05-10T20:55:43.603Z,13.79
2023-05-10T20:58:46.297Z,13.63
2023-05-10T21:01:49.139Z,13.54
2023-05-10T21:04:52.031Z,13.43
2023-05-10T21:07:57.279Z,13.36
2023-05-10T21:11:04.798Z,13.28
2023-05-10T21:14:08.094Z,13.23
2023-05-10T21:17:11.033Z,13.14
2023-05-10T21:20:14.145Z,13.08
2023-05-10T21:23:17.023Z,12.97
2023-05-10T21:26:19.877Z,12.89
2023-05-10T21:29:22.679Z,12.77
2023-05-10T21:32:25.495Z,12.70
2023-05-10T21:35:29.431Z,12.64
2023-05-10T21:38:33.203Z,12.57
2023-05-10T21:41:36.072Z,12.54
2023-05-10T21:44:38.883Z,12.49
2023-05-10T21:47:41.736Z,12.52
2023-05-10T21:50:44.466Z,12.49
2023-05-10T21:53:47.714Z,12.43
2023-05-10T21:56:51.243Z,12.34
2023-05-10T21:59:54.323Z,12.31
2023-05-10T22:02:57.156Z,12.27
2023-05-10T22:06:00.284Z,12.22
2023-05-10T22:09:03.084Z,12.17
2023-05-10T22:12:05.992Z,12.12
2023-05-10T22:15:10.882Z,12.07
2023-05-10T22:18:13.796Z,12.04
2023-05-10T22:21:16.606Z,11.98
2023-05-10T22:24:19.304Z,11.91
2023-05-10T22:27:22.049Z,11.87
2023-05-10T22:30:24.847Z,11.84
2023-05-10T22:33:27.597Z,11.80
2023-05-10T22:36:31.760Z,11.75
2023-05-10T22:39:35.127Z,11.73
2023-05-10T22:42:38.163Z,11.78
2023-05-10T22:45:40.896Z,11.74
2023-05-10T22:48:44.092Z,11.73
2023-05-10T22:51:46.808Z,11.75
2023-05-10T22:54:49.641Z,11.72
2023-05-10T22:57:52.576Z,11.74
2023-05-10T23:00:55.597Z,11.77
2023-05-10T23:03:58.506Z,11.78
2023-05-10T23:07:01.225Z,11.80
2023-05-10T23:10:04.734Z,11.73
2023-05-10T23:13:08.062Z,11.67
2023-05-10T23:16:10.855Z,11.55
2023-05-10T23:19:13.754Z,11.55
2023-05-10T23:22:16.489Z,11.52
2023-05-10T23:25:19.207Z,11.48
2023-05-10T23:28:21.920Z,11.41
2023-05-10T23:31:24.728Z,11.35
2023-05-10T23:34:27.431Z,11.34
2023-05-10T23:37:30.181Z,11.28
2023-05-10T23:40:32.972Z,11.26
2023-05-10T23:43:35.692Z,11.23
2023-05-10T23:46:38.488Z,11.21
2023-05-10T23:49:42.339Z,11.20
2023-05-10T23:52:45.033Z,11.22
2023-05-10T23:56:12.540Z,11.25
2023-05-10T23:59:15.550Z,11.26
